Time;durP1;ratioP1;P1;durP2;ratioP2;P2;SDS_P1;SDS_P2;PMS_P1;PMS_P2;Temp;Humidity;BMP_temperature;BMP_pressure;BME280_temperature;BME280_humidity;BME280_pressure;Samples;Min_cycle;Max_cycle;Signal;HPM_P1;HPM_P2
2023/04/09 00:01:12;;;;;;;12.20;10.23;;;20.90;40.60;;;;;;5042105;28;20109;-51
2023/04/09 00:03:39;;;;;;;12.20;10.40;;;20.90;40.60;;;;;;5040957;28;20028;-50
2023/04/09 00:06:05;;;;;;;11.82;10.15;;;20.90;40.60;;;;;;5046113;28;20029;-46
2023/04/09 00:08:31;;;;;;;11.40;10.20;;;20.90;40.60;;;;;;5042137;28;20041;-49
2023/04/09 00:10:57;;;;;;;11.93;9.75;;;20.90;40.60;;;;;;5039939;28;20040;-47
2023/04/09 00:13:24;;;;;;;12.45;10.63;;;20.90;40.50;;;;;;5043792;28;20111;-53
2023/04/09 00:15:49;;;;;;;10.27;9.00;;;20.90;40.60;;;;;;5038675;28;20029;-52
2023/04/09 00:18:15;;;;;;;10.95;8.93;;;20.90;40.50;;;;;;5040004;28;20040;-54
2023/04/09 00:20:43;;;;;;;11.98;10.05;;;20.90;40.50;;;;;;5041474;28;20044;-48
2023/04/09 00:23:09;;;;;;;11.18;9.65;;;20.90;40.50;;;;;;5042484;28;20025;-48
2023/04/09 00:25:35;;;;;;;11.38;9.70;;;20.90;40.50;;;;;;5038947;28;20037;-52
2023/04/09 00:28:01;;;;;;;11.93;10.25;;;20.90;40.60;;;;;;5042115;28;20124;-48
2023/04/09 00:30:30;;;;;;;10.65;9.43;;;20.90;40.50;;;;;;5041379;28;20033;-48
2023/04/09 00:32:57;;;;;;;10.55;9.10;;;20.80;40.50;;;;;;5041322;28;20040;-49
2023/04/09 00:35:23;;;;;;;13.77;10.02;;;20.80;40.50;;;;;;5040504;28;20044;-49
2023/04/09 00:37:49;;;;;;;12.77;10.35;;;20.80;40.50;;;;;;5046271;28;20022;-50
2023/04/09 00:40:15;;;;;;;10.93;9.45;;;20.80;40.60;;;;;;5039485;28;20029;-48
2023/04/09 00:42:41;;;;;;;11.13;8.90;;;20.80;40.60;;;;;;5038555;28;20025;-49
2023/04/09 00:45:08;;;;;;;10.90;9.02;;;20.80;40.60;;;;;;5041988;28;20619;-51
2023/04/09 00:47:34;;;;;;;11.15;8.90;;;20.80;40.60;;;;;;5050096;28;20118;-52
2023/04/09 00:50:02;;;;;;;11.55;9.23;;;20.80;40.60;;;;;;5041159;28;20470;-51
2023/04/09 00:52:31;;;;;;;10.52;8.88;;;20.80;40.60;;;;;;5039177;28;20035;-50
2023/04/09 00:54:59;;;;;;;11.90;9.48;;;20.80;40.60;;;;;;5039993;28;20090;-51
2023/04/09 00:57:25;;;;;;;10.93;9.18;;;20.80;40.70;;;;;;5040957;28;20040;-49
2023/04/09 00:59:51;;;;;;;10.93;9.02;;;20.80;40.70;;;;;;5042173;28;20025;-50
2023/04/09 01:02:17;;;;;;;10.73;8.82;;;20.80;40.70;;;;;;5038543;28;20025;-46
2023/04/09 01:04:43;;;;;;;10.35;8.52;;;20.80;40.70;;;;;;5041636;28;20036;-48
2023/04/09 01:07:14;;;;;;;9.80;8.55;;;20.80;40.70;;;;;;5038016;28;20044;-49
2023/04/09 01:09:50;;;;;;;10.90;8.90;;;20.70;40.70;;;;;;5045462;28;20032;-51
2023/04/09 01:12:36;;;;;;;11.43;8.48;;;20.80;40.70;;;;;;5039494;28;20115;-51
2023/04/09 01:15:06;;;;;;;9.35;8.25;;;20.80;40.70;;;;;;5055415;28;20025;-51
2023/04/09 01:17:51;;;;;;;10.23;8.45;;;20.80;40.70;;;;;;5040774;28;20041;-50
2023/04/09 01:20:34;;;;;;;10.35;8.60;;;20.70;40.70;;;;;;5038760;28;20337;-48
2023/04/09 01:23:42;;;;;;;11.23;8.93;;;20.80;40.80;;;;;;5056590;28;20025;-51
2023/04/09 01:26:40;;;;;;;9.52;8.32;;;20.70;40.70;;;;;;5040757;28;20025;-47
2023/04/09 01:29:07;;;;;;;10.27;8.38;;;20.70;40.80;;;;;;5042089;28;20121;-50
2023/04/09 01:31:39;;;;;;;9.25;8.02;;;20.70;40.80;;;;;;5039946;28;20033;-46
2023/04/09 01:34:07;;;;;;;9.63;8.15;;;20.70;40.80;;;;;;5039113;28;20044;-52
2023/04/09 01:36:34;;;;;;;11.20;8.65;;;20.70;40.80;;;;;;5036524;28;20029;-49
2023/04/09 01:39:01;;;;;;;11.50;7.95;;;20.70;40.80;;;;;;5038625;28;20361;-49
2023/04/09 01:41:30;;;;;;;9.15;7.47;;;20.70;40.70;;;;;;5038107;28;20029;-49
2023/04/09 01:43:56;;;;;;;9.95;8.43;;;20.70;40.70;;;;;;5039610;28;20410;-50
2023/04/09 01:46:23;;;;;;;8.30;7.28;;;20.70;40.70;;;;;;5037750;28;20052;-49
2023/04/09 01:48:50;;;;;;;9.13;7.78;;;20.70;40.60;;;;;;5038112;28;20348;-53
2023/04/09 01:51:17;;;;;;;9.68;7.75;;;20.70;40.60;;;;;;5055531;28;20036;-52
2023/04/09 01:53:42;;;;;;;9.02;7.45;;;20.70;40.60;;;;;;5069721;28;20052;-50
2023/04/09 01:56:08;;;;;;;9.95;7.93;;;20.70;40.60;;;;;;5037625;28;20138;-50
2023/04/09 01:58:35;;;;;;;8.95;7.38;;;20.70;40.50;;;;;;5038493;28;20112;-50
2023/04/09 02:01:21;;;;;;;8.65;7.53;;;20.80;40.60;;;;;;5037241;28;20160;-52
2023/04/09 02:04:13;;;;;;;9.10;7.88;;;20.80;40.50;;;;;;5038655;28;20040;-47
2023/04/09 02:06:51;;;;;;;9.65;7.50;;;20.80;40.50;;;;;;5042791;28;20074;-48
2023/04/09 02:09:20;;;;;;;9.80;7.82;;;20.80;40.40;;;;;;5039534;28;20048;-51
2023/04/09 02:11:48;;;;;;;11.00;7.88;;;20.80;40.40;;;;;;5039067;28;20174;-47
2023/04/09 02:14:15;;;;;;;9.23;7.50;;;20.80;40.40;;;;;;5038365;28;20029;-50
2023/04/09 02:16:41;;;;;;;8.48;7.22;;;20.80;40.40;;;;;;5037049;28;20026;-49
2023/04/09 02:19:07;;;;;;;7.47;6.07;;;20.80;40.40;;;;;;5039277;28;20021;-48
2023/04/09 02:21:33;;;;;;;8.43;6.78;;;20.80;40.40;;;;;;5042270;28;20017;-49
2023/04/09 02:23:59;;;;;;;9.13;7.40;;;20.80;40.40;;;;;;5037940;28;20574;-47
2023/04/09 02:26:25;;;;;;;7.82;6.90;;;20.80;40.30;;;;;;5045740;28;20028;-49
2023/04/09 02:28:51;;;;;;;8.45;6.85;;;20.80;40.30;;;;;;5039994;28;20021;-46
2023/04/09 02:31:16;;;;;;;7.53;6.72;;;20.80;40.30;;;;;;5036158;28;20476;-47
2023/04/09 02:33:42;;;;;;;7.85;6.57;;;20.80;40.30;;;;;;5043240;28;20044;-50
2023/04/09 02:36:12;;;;;;;7.05;6.35;;;20.80;40.20;;;;;;5036662;28;20022;-47
2023/04/09 02:38:41;;;;;;;7.45;6.43;;;20.80;40.20;;;;;;5036184;28;20025;-51
2023/04/09 02:41:07;;;;;;;8.40;6.88;;;20.80;40.20;;;;;;5042377;28;20059;-45
2023/04/09 02:43:32;;;;;;;7.53;6.72;;;20.80;40.20;;;;;;5038951;28;20548;-47
2023/04/09 02:45:58;;;;;;;8.23;6.53;;;20.80;40.20;;;;;;5040080;28;20029;-51
2023/04/09 02:48:24;;;;;;;8.10;7.00;;;20.90;40.20;;;;;;5041713;28;20021;-52
2023/04/09 02:50:50;;;;;;;7.07;6.38;;;20.90;40.20;;;;;;5040518;28;20388;-50
2023/04/09 02:53:16;;;;;;;7.57;6.25;;;20.80;40.10;;;;;;5038365;28;20695;-46
2023/04/09 02:55:42;;;;;;;8.30;6.55;;;20.90;40.10;;;;;;5037722;28;20039;-50
2023/04/09 02:58:07;;;;;;;8.18;6.63;;;20.90;40.10;;;;;;5041045;28;20021;-49
2023/04/09 03:00:33;;;;;;;8.13;6.47;;;20.80;40.00;;;;;;5036913;28;20116;-51
2023/04/09 03:02:59;;;;;;;8.32;6.97;;;20.80;40.00;;;;;;5054262;28;20029;-46
2023/04/09 03:05:25;;;;;;;9.02;7.13;;;20.80;40.00;;;;;;5054316;28;20030;-50
2023/04/09 03:07:51;;;;;;;7.35;6.30;;;20.90;40.00;;;;;;5040565;28;20039;-51
2023/04/09 03:10:17;;;;;;;6.63;5.80;;;20.80;40.00;;;;;;5039593;28;20076;-47
2023/04/09 03:12:43;;;;;;;7.47;6.50;;;20.90;40.10;;;;;;5040461;28;20025;-45
2023/04/09 03:15:09;;;;;;;7.32;6.43;;;20.90;40.10;;;;;;5037727;28;20029;-53
2023/04/09 03:17:35;;;;;;;7.20;6.10;;;20.90;40.20;;;;;;5046093;28;20056;-48
2023/04/09 03:20:01;;;;;;;6.97;6.07;;;20.80;40.10;;;;;;5041852;28;20464;-51
2023/04/09 03:22:38;;;;;;;7.45;6.45;;;20.90;40.20;;;;;;5043151;28;20043;-53
2023/04/09 03:25:10;;;;;;;7.18;5.97;;;20.90;40.20;;;;;;5043622;28;20032;-51
2023/04/09 03:27:36;;;;;;;7.70;6.50;;;20.80;40.10;;;;;;5058643;28;20037;-52
2023/04/09 03:30:02;;;;;;;6.07;5.45;;;20.90;40.10;;;;;;5045262;28;20365;-53
2023/04/09 03:32:36;;;;;;;7.47;6.53;;;20.80;40.10;;;;;;5042197;28;20040;-49
2023/04/09 03:35:03;;;;;;;7.40;6.50;;;20.80;40.00;;;;;;5068149;28;20021;-50
2023/04/09 03:37:29;;;;;;;8.77;6.30;;;20.80;39.90;;;;;;5044250;28;20030;-52
2023/04/09 03:39:55;;;;;;;7.32;6.50;;;20.80;39.90;;;;;;5040536;28;20037;-50
2023/04/09 03:42:24;;;;;;;7.25;5.95;;;20.80;39.90;;;;;;5041128;28;20453;-51
2023/04/09 03:44:53;;;;;;;7.93;6.13;;;20.80;39.90;;;;;;5043983;28;20045;-49
2023/04/09 03:47:26;;;;;;;8.15;6.75;;;20.80;39.90;;;;;;5041309;28;20040;-49
2023/04/09 03:49:54;;;;;;;7.65;6.28;;;20.90;39.90;;;;;;5060302;28;20044;-49
2023/04/09 03:52:24;;;;;;;7.50;6.13;;;20.80;39.80;;;;;;5043765;28;20025;-52
2023/04/09 03:55:03;;;;;;;9.32;6.15;;;20.80;39.80;;;;;;5057203;28;20440;-52
2023/04/09 03:57:29;;;;;;;7.32;6.00;;;20.80;39.80;;;;;;5041666;28;20055;-51
2023/04/09 03:59:56;;;;;;;7.28;6.03;;;20.80;39.80;;;;;;5041661;28;20356;-49
2023/04/09 04:02:25;;;;;;;6.43;5.72;;;20.80;39.80;;;;;;5045263;28;20025;-47
2023/04/09 04:04:59;;;;;;;7.22;5.65;;;20.90;39.80;;;;;;5041271;28;20037;-49
2023/04/09 04:07:29;;;;;;;7.15;5.88;;;20.90;39.80;;;;;;5043253;28;20037;-46
2023/04/09 04:10:02;;;;;;;7.03;5.95;;;20.90;39.70;;;;;;5055468;28;20387;-50
2023/04/09 04:12:30;;;;;;;6.05;5.45;;;20.80;39.60;;;;;;5055448;28;20357;-46
2023/04/09 04:15:04;;;;;;;6.65;5.60;;;20.80;39.60;;;;;;5042309;28;20024;-47
2023/04/09 04:17:36;;;;;;;7.80;5.78;;;20.80;39.50;;;;;;5044460;28;20472;-48
2023/04/09 04:20:06;;;;;;;7.40;5.97;;;20.80;39.50;;;;;;5038814;28;20039;-48
2023/04/09 04:22:39;;;;;;;9.10;6.53;;;20.80;39.50;;;;;;5040305;28;20044;-51
2023/04/09 04:25:05;;;;;;;6.60;5.47;;;20.80;39.40;;;;;;5041974;28;20381;-50
2023/04/09 04:27:31;;;;;;;7.70;5.47;;;20.80;39.40;;;;;;5042379;28;20123;-50
2023/04/09 04:29:58;;;;;;;6.47;5.78;;;20.80;39.40;;;;;;5039118;28;20124;-50
2023/04/09 04:32:36;;;;;;;6.13;5.10;;;20.80;39.40;;;;;;5040896;28;20029;-48
2023/04/09 04:35:06;;;;;;;7.13;5.93;;;20.80;39.40;;;;;;5040663;28;20025;-49
2023/04/09 04:37:32;;;;;;;7.05;5.30;;;20.80;39.50;;;;;;5040065;28;20037;-48
2023/04/09 04:40:04;;;;;;;6.47;5.40;;;20.80;39.50;;;;;;5042290;28;20395;-51
2023/04/09 04:42:34;;;;;;;7.97;5.88;;;20.80;39.50;;;;;;5037996;28;20098;-49
2023/04/09 04:45:04;;;;;;;6.70;5.78;;;20.80;39.50;;;;;;5037836;28;20172;-50
2023/04/09 04:47:40;;;;;;;6.03;5.18;;;20.80;39.50;;;;;;5054846;28;20049;-52
2023/04/09 04:50:07;;;;;;;6.82;5.72;;;20.80;39.50;;;;;;5046410;28;20098;-51
2023/04/09 04:52:43;;;;;;;6.00;5.30;;;20.80;39.50;;;;;;5038784;28;20079;-45
2023/04/09 04:55:09;;;;;;;5.80;5.05;;;20.80;39.40;;;;;;5039011;28;20053;-51
2023/04/09 04:57:35;;;;;;;7.28;6.03;;;20.80;39.40;;;;;;5043807;28;20029;-52
2023/04/09 05:00:01;;;;;;;6.47;5.47;;;20.80;39.30;;;;;;5045147;28;20028;-49
2023/04/09 05:02:27;;;;;;;7.22;5.60;;;20.80;39.30;;;;;;5043007;28;20356;-48
2023/04/09 05:05:16;;;;;;;6.18;5.50;;;20.80;39.20;;;;;;5039057;28;20472;-47
2023/04/09 05:07:50;;;;;;;7.13;5.90;;;20.80;39.20;;;;;;5040904;28;20116;-54
2023/04/09 05:10:16;;;;;;;7.15;5.32;;;20.80;39.20;;;;;;5041324;28;20075;-51
2023/04/09 05:12:43;;;;;;;6.93;5.25;;;20.80;39.20;;;;;;5038057;28;20564;-49
2023/04/09 05:15:13;;;;;;;6.78;5.75;;;20.80;39.80;;;;;;5057888;28;20083;-50
2023/04/09 05:17:42;;;;;;;6.55;5.45;;;20.80;39.10;;;;;;5039549;28;20456;-48
2023/04/09 05:20:09;;;;;;;6.72;5.40;;;20.80;39.00;;;;;;5040878;28;20033;-50
2023/04/09 05:22:45;;;;;;;5.88;5.13;;;20.80;39.10;;;;;;5041666;28;20037;-49
2023/04/09 05:25:14;;;;;;;6.28;5.20;;;20.80;39.00;;;;;;5024033;28;20068;-49
2023/04/09 05:27:40;;;;;;;8.75;5.43;;;20.80;38.90;;;;;;5035522;28;20029;-49
2023/04/09 05:30:07;;;;;;;6.07;5.00;;;20.80;38.90;;;;;;5039111;28;20496;-49
2023/04/09 05:32:33;;;;;;;7.35;5.13;;;20.80;38.80;;;;;;5053664;28;20053;-50
2023/04/09 05:34:59;;;;;;;6.20;5.22;;;20.80;38.80;;;;;;5039548;28;20045;-50
2023/04/09 05:37:27;;;;;;;5.78;5.00;;;20.80;38.70;;;;;;5037178;28;20060;-49
2023/04/09 05:39:53;;;;;;;6.72;5.20;;;20.80;38.60;;;;;;5038918;28;20033;-53
2023/04/09 05:42:19;;;;;;;6.93;5.22;;;20.80;38.60;;;;;;5058235;28;20039;-50
2023/04/09 05:45:01;;;;;;;7.63;5.60;;;20.80;38.50;;;;;;5042451;28;20127;-49
2023/04/09 05:47:28;;;;;;;6.22;5.22;;;20.80;38.50;;;;;;5055211;28;20044;-50
2023/04/09 05:50:02;;;;;;;5.57;4.82;;;20.80;38.50;;;;;;5055235;28;20484;-54
2023/04/09 05:52:28;;;;;;;6.25;5.40;;;20.80;38.40;;;;;;5055495;28;20033;-49
2023/04/09 05:54:55;;;;;;;6.22;5.28;;;20.80;38.40;;;;;;5039266;28;20060;-47
2023/04/09 05:57:29;;;;;;;6.40;5.32;;;20.80;39.00;;;;;;5055685;28;20104;-52
2023/04/09 05:59:58;;;;;;;6.63;5.70;;;20.80;38.90;;;;;;5041054;28;20044;-48
2023/04/09 06:02:24;;;;;;;5.82;5.22;;;20.80;38.30;;;;;;5041834;28;20029;-52
2023/04/09 06:04:50;;;;;;;7.28;5.57;;;20.80;38.30;;;;;;5040053;28;20041;-54
2023/04/09 06:07:16;;;;;;;6.63;5.15;;;20.80;38.30;;;;;;5038243;28;20538;-48
2023/04/09 06:09:45;;;;;;;6.30;5.57;;;20.80;38.30;;;;;;5039748;28;20049;-48
2023/04/09 06:12:12;;;;;;;6.28;5.28;;;20.90;38.30;;;;;;5038183;28;20037;-48
2023/04/09 06:14:38;;;;;;;7.93;5.45;;;20.80;38.20;;;;;;5038013;28;20029;-51
2023/04/09 06:17:04;;;;;;;7.40;5.65;;;20.80;38.20;;;;;;5055645;28;20075;-51
2023/04/09 06:19:30;;;;;;;6.90;5.65;;;20.80;38.20;;;;;;5037933;28;20029;-49
2023/04/09 06:21:56;;;;;;;6.20;5.43;;;20.80;38.20;;;;;;5047759;28;20065;-48
2023/04/09 06:24:22;;;;;;;8.00;5.78;;;20.80;38.20;;;;;;5045330;28;20111;-49
2023/04/09 06:26:48;;;;;;;7.22;5.88;;;20.90;38.20;;;;;;5045609;28;20033;-51
2023/04/09 06:29:14;;;;;;;7.05;6.00;;;20.90;38.20;;;;;;5043690;28;20478;-52
2023/04/09 06:31:40;;;;;;;8.27;6.80;;;20.90;38.10;;;;;;5044028;28;20025;-50
2023/04/09 06:34:06;;;;;;;7.50;6.18;;;20.90;38.10;;;;;;5045210;28;20053;-51
2023/04/09 06:36:33;;;;;;;8.85;6.20;;;20.90;38.00;;;;;;5046676;28;20060;-48
2023/04/09 06:38:59;;;;;;;7.85;5.97;;;20.90;38.00;;;;;;5044148;28;20037;-51
2023/04/09 06:41:28;;;;;;;8.20;6.53;;;20.90;38.00;;;;;;5044165;28;20519;-50
2023/04/09 06:43:54;;;;;;;9.63;6.75;;;20.90;38.60;;;;;;5045612;28;20071;-53
2023/04/09 06:46:20;;;;;;;8.38;6.20;;;20.90;37.90;;;;;;5046753;28;20053;-52
2023/04/09 06:48:46;;;;;;;7.25;6.30;;;20.90;37.80;;;;;;5044349;28;20045;-52
2023/04/09 06:51:12;;;;;;;9.23;6.82;;;20.90;37.80;;;;;;5047412;28;20045;-50
2023/04/09 06:53:38;;;;;;;9.77;7.35;;;20.90;37.80;;;;;;5041437;28;20047;-48
2023/04/09 06:56:04;;;;;;;8.77;6.95;;;20.90;37.70;;;;;;5051200;28;20025;-52
2023/04/09 06:58:32;;;;;;;8.30;6.63;;;21.00;37.70;;;;;;5045099;28;20436;-50
2023/04/09 07:00:58;;;;;;;8.60;7.07;;;21.00;37.70;;;;;;5054894;28;20079;-52
2023/04/09 07:03:26;;;;;;;10.05;7.25;;;20.90;37.70;;;;;;5050667;28;20032;-51
2023/04/09 07:05:53;;;;;;;9.18;7.35;;;21.00;37.70;;;;;;5053709;28;20112;-47
2023/04/09 07:08:21;;;;;;;11.02;8.27;;;21.00;37.70;;;;;;5054445;28;20102;-51
2023/04/09 07:10:48;;;;;;;10.15;8.18;;;21.00;37.60;;;;;;5056855;28;20040;-48
2023/04/09 07:13:15;;;;;;;9.65;7.80;;;21.00;37.60;;;;;;5055900;28;20045;-47
2023/04/09 07:15:41;;;;;;;10.13;8.25;;;21.10;37.50;;;;;;5056613;28;20083;-52
2023/04/09 07:18:06;;;;;;;10.48;8.77;;;21.10;37.50;;;;;;5055908;28;20025;-51
2023/04/09 07:20:33;;;;;;;16.20;9.02;;;21.10;37.50;;;;;;5043942;28;20392;-51
2023/04/09 07:22:59;;;;;;;11.68;8.68;;;21.20;37.50;;;;;;5040773;28;20029;-49
2023/04/09 07:25:25;;;;;;;12.90;9.18;;;21.20;37.40;;;;;;5056883;28;20029;-47
2023/04/09 07:27:51;;;;;;;11.52;9.48;;;21.20;37.40;;;;;;5056583;28;20429;-48
2023/04/09 07:30:17;;;;;;;10.23;8.95;;;21.20;37.40;;;;;;5056451;28;20452;-48
2023/04/09 07:32:43;;;;;;;12.15;10.10;;;21.20;37.40;;;;;;5062108;28;20025;-51
2023/04/09 07:35:10;;;;;;;11.85;10.27;;;21.20;37.50;;;;;;5056565;28;20118;-54
2023/04/09 07:37:38;;;;;;;11.27;10.07;;;21.30;37.60;;;;;;5043097;28;20059;-53
2023/04/09 07:40:04;;;;;;;12.32;10.57;;;21.30;37.80;;;;;;5036578;28;20033;-51
2023/04/09 07:42:30;;;;;;;14.13;11.40;;;21.30;37.90;;;;;;5045887;28;20076;-53
2023/04/09 07:44:56;;;;;;;13.95;11.90;;;21.30;38.00;;;;;;5055646;28;20510;-52
2023/04/09 07:47:22;;;;;;;14.38;12.45;;;21.40;38.10;;;;;;5069595;28;20032;-50
2023/04/09 07:49:49;;;;;;;15.45;12.40;;;21.40;38.10;;;;;;5060794;28;20455;-47
2023/04/09 07:52:15;;;;;;;15.07;12.90;;;21.40;38.10;;;;;;5059917;28;20028;-48
2023/04/09 07:54:41;;;;;;;15.40;12.85;;;21.40;38.10;;;;;;5046760;28;20079;-48
2023/04/09 07:57:06;;;;;;;13.73;12.10;;;21.40;38.00;;;;;;5056387;28;20028;-51
2023/04/09 07:59:35;;;;;;;14.15;12.65;;;21.40;37.90;;;;;;5056427;28;20044;-51
2023/04/09 08:02:01;;;;;;;14.43;12.63;;;21.40;37.90;;;;;;5054090;28;20059;-49
2023/04/09 08:04:26;;;;;;;14.82;12.50;;;21.40;37.80;;;;;;5046344;28;20029;-51
2023/04/09 08:06:52;;;;;;;15.30;11.95;;;21.40;37.70;;;;;;5047069;28;20510;-53
2023/04/09 08:09:19;;;;;;;12.63;11.23;;;21.50;37.70;;;;;;5042856;28;20036;-51
2023/04/09 08:11:46;;;;;;;14.30;12.23;;;21.40;37.60;;;;;;5047171;28;20044;-52
2023/04/09 08:14:13;;;;;;;15.57;13.35;;;21.40;37.60;;;;;;5054831;28;20076;-50
2023/04/09 08:16:44;;;;;;;16.38;14.15;;;21.40;37.70;;;;;;5044584;28;20664;-52
2023/04/09 08:19:10;;;;;;;16.30;14.10;;;21.50;37.80;;;;;;5047394;28;20032;-51
2023/04/09 08:21:43;;;;;;;18.15;14.48;;;21.50;37.80;;;;;;5053135;28;20033;-54
2023/04/09 08:24:10;;;;;;;16.38;14.18;;;21.40;37.80;;;;;;5052301;28;20044;-52
2023/04/09 08:26:40;;;;;;;17.08;14.38;;;21.50;37.90;;;;;;5052751;28;20115;-48
2023/04/09 08:29:07;;;;;;;17.02;13.10;;;21.50;38.40;;;;;;5046511;28;20100;-49
2023/04/09 08:31:35;;;;;;;15.95;14.25;;;21.50;37.80;;;;;;5051730;28;20036;-48
2023/04/09 08:34:00;;;;;;;15.50;12.90;;;21.40;37.70;;;;;;5043060;28;20100;-52
2023/04/09 08:36:26;;;;;;;15.77;13.93;;;21.40;37.70;;;;;;5036794;28;20121;-51
2023/04/09 08:38:54;;;;;;;15.52;12.85;;;21.50;37.60;;;;;;5034897;28;20056;-48
2023/04/09 08:41:23;;;;;;;13.98;12.35;;;21.50;37.60;;;;;;5040104;28;20029;-50
2023/04/09 08:43:50;;;;;;;14.25;12.43;;;21.50;37.50;;;;;;5038355;28;20040;-50
2023/04/09 08:46:17;;;;;;;15.73;12.38;;;21.50;37.40;;;;;;5038202;28;20621;-51
2023/04/09 08:48:47;;;;;;;15.00;12.60;;;21.50;37.40;;;;;;5038355;28;20037;-50
2023/04/09 08:51:20;;;;;;;15.23;11.93;;;21.50;37.40;;;;;;5043433;28;20078;-51
2023/04/09 08:53:52;;;;;;;14.40;12.32;;;21.50;37.30;;;;;;5041669;28;20040;-50
2023/04/09 08:56:19;;;;;;;13.27;11.88;;;21.40;37.30;;;;;;5042242;28;20112;-49
2023/04/09 08:58:46;;;;;;;14.93;12.25;;;21.40;37.20;;;;;;5037605;28;20033;-49
2023/04/09 09:01:25;;;;;;;13.77;12.27;;;21.40;37.20;;;;;;5044540;28;20020;-48
2023/04/09 09:04:02;;;;;;;14.65;11.88;;;21.50;37.20;;;;;;5048840;28;20474;-52
2023/04/09 09:06:31;;;;;;;13.52;11.35;;;21.40;37.10;;;;;;5043413;28;20029;-50
2023/04/09 09:09:03;;;;;;;13.13;11.27;;;21.40;37.00;;;;;;5038981;28;20033;-53
2023/04/09 09:11:29;;;;;;;12.57;11.10;;;21.40;37.00;;;;;;5036043;28;20472;-49
2023/04/09 09:14:07;;;;;;;13.18;11.40;;;21.40;36.90;;;;;;5038377;28;20075;-53
2023/04/09 09:16:38;;;;;;;13.57;11.45;;;21.40;36.80;;;;;;5052000;28;20029;-46
2023/04/09 09:19:06;;;;;;;19.90;16.38;;;21.40;36.80;;;;;;5047876;28;20465;-48
2023/04/09 09:21:32;;;;;;;24.70;20.42;;;21.40;37.10;;;;;;5038298;28;20480;-48
2023/04/09 09:23:58;;;;;;;24.77;21.63;;;21.40;37.60;;;;;;5042449;28;20104;-49
2023/04/09 09:26:27;;;;;;;24.83;20.90;;;21.50;37.90;;;;;;5037162;28;20374;-51
2023/04/09 09:28:54;;;;;;;23.88;19.92;;;21.40;37.80;;;;;;5035789;28;20021;-49
2023/04/09 09:31:21;;;;;;;22.80;19.60;;;21.40;37.70;;;;;;5036015;28;20364;-45
2023/04/09 09:33:49;;;;;;;21.52;19.05;;;21.40;37.60;;;;;;5038368;28;20037;-51
2023/04/09 09:36:28;;;;;;;21.35;18.63;;;21.40;37.50;;;;;;5039934;28;20044;-53
2023/04/09 09:38:57;;;;;;;20.38;17.95;;;21.40;37.40;;;;;;5033270;28;20067;-50
2023/04/09 09:41:24;;;;;;;18.73;16.73;;;21.40;37.30;;;;;;5037538;28;20025;-48
2023/04/09 09:43:50;;;;;;;21.10;17.40;;;21.40;37.20;;;;;;5037017;28;20067;-48
2023/04/09 09:46:16;;;;;;;19.80;17.67;;;21.50;37.10;;;;;;5038933;28;20113;-50
2023/04/09 09:48:45;;;;;;;18.98;16.02;;;21.40;37.00;;;;;;5042350;28;20029;-49
2023/04/09 09:51:13;;;;;;;18.95;15.88;;;21.50;37.00;;;;;;5035004;28;20037;-52
2023/04/09 09:53:42;;;;;;;16.75;14.95;;;21.40;36.90;;;;;;5035685;28;20108;-51
2023/04/09 09:56:17;;;;;;;17.10;15.05;;;21.40;36.80;;;;;;5037838;28;20348;-49
2023/04/09 09:58:50;;;;;;;17.15;15.23;;;21.40;36.70;;;;;;5033979;28;20384;-46
2023/04/09 10:01:20;;;;;;;16.48;14.05;;;21.40;36.60;;;;;;5041297;28;20048;-50
2023/04/09 10:03:48;;;;;;;16.75;14.40;;;21.40;36.50;;;;;;5051202;28;20032;-50
2023/04/09 10:06:14;;;;;;;16.63;14.38;;;21.40;36.50;;;;;;5041914;28;20419;-49
2023/04/09 10:08:42;;;;;;;16.05;14.23;;;21.40;36.50;;;;;;5041511;28;20036;-50
2023/04/09 10:11:07;;;;;;;17.50;14.65;;;21.40;36.40;;;;;;5045508;28;20086;-50
2023/04/09 10:13:39;;;;;;;16.42;14.10;;;21.40;36.40;;;;;;5045834;28;20029;-50
2023/04/09 10:16:06;;;;;;;17.50;14.80;;;21.50;36.40;;;;;;5053471;28;20033;-45
2023/04/09 10:18:33;;;;;;;16.70;14.45;;;21.40;36.40;;;;;;5051490;28;20059;-47
2023/04/09 10:21:26;;;;;;;22.85;19.02;;;21.40;36.40;;;;;;5052966;28;20025;-53
2023/04/09 10:23:52;;;;;;;28.02;24.17;;;21.40;37.20;;;;;;5053384;28;20332;-50
2023/04/09 10:26:19;;;;;;;32.67;27.63;;;21.40;38.20;;;;;;5055273;28;20063;-50
2023/04/09 10:28:45;;;;;;;34.25;29.35;;;21.40;39.00;;;;;;5055879;28;20460;-53
2023/04/09 10:31:10;;;;;;;34.03;30.33;;;21.50;39.60;;;;;;5063839;28;20040;-49
2023/04/09 10:33:37;;;;;;;34.28;30.58;;;21.50;39.90;;;;;;5056976;28;20021;-47
2023/04/09 10:36:08;;;;;;;35.22;30.33;;;21.50;40.30;;;;;;5057212;28;20078;-52
2023/04/09 10:38:37;;;;;;;34.25;30.00;;;21.60;40.40;;;;;;5053835;28;20448;-51
2023/04/09 10:41:14;;;;;;;33.92;29.17;;;21.60;40.30;;;;;;5050573;28;20398;-49
2023/04/09 10:43:39;;;;;;;32.55;28.85;;;21.60;40.30;;;;;;5043631;28;21154;-51
2023/04/09 10:46:24;;;;;;;36.92;30.10;;;21.60;40.20;;;;;;5039836;28;20032;-48
2023/04/09 10:49:21;;;;;;;35.38;29.90;;;21.60;40.20;;;;;;5047833;28;20104;-50
2023/04/09 10:52:10;;;;;;;32.75;28.67;;;21.70;40.10;;;;;;5039945;28;20073;-53
2023/04/09 10:54:47;;;;;;;30.63;27.33;;;21.70;39.90;;;;;;5049353;28;20044;-49
2023/04/09 10:57:18;;;;;;;29.25;26.00;;;21.70;39.50;;;;;;5039469;28;20143;-50
2023/04/09 10:59:53;;;;;;;27.13;24.27;;;21.70;39.20;;;;;;5046250;28;20048;-48
2023/04/09 11:02:38;;;;;;;25.83;23.05;;;21.70;39.00;;;;;;5045843;28;20104;-50
2023/04/09 11:05:22;;;;;;;24.50;21.90;;;21.70;38.60;;;;;;5044292;28;20065;-48
2023/04/09 11:08:02;;;;;;;24.02;21.48;;;21.80;38.40;;;;;;5040667;28;20076;-47
2023/04/09 11:10:28;;;;;;;24.30;21.73;;;21.80;38.10;;;;;;5041370;28;20136;-49
2023/04/09 11:12:54;;;;;;;22.85;20.17;;;21.80;37.90;;;;;;5039737;28;20109;-52
2023/04/09 11:15:24;;;;;;;22.90;20.17;;;21.80;37.70;;;;;;5044481;28;20025;-56
2023/04/09 11:17:52;;;;;;;22.67;19.08;;;21.80;37.50;;;;;;5059118;28;20029;-53
2023/04/09 11:20:23;;;;;;;22.15;19.73;;;21.80;37.30;;;;;;5041017;28;21556;-47
2023/04/09 11:22:51;;;;;;;21.33;18.27;;;21.80;37.00;;;;;;5046877;28;20398;-49
2023/04/09 11:25:20;;;;;;;20.73;18.30;;;21.80;36.80;;;;;;5046251;28;20033;-46
2023/04/09 11:27:47;;;;;;;20.17;17.40;;;21.80;36.70;;;;;;5039200;28;20065;-50
2023/04/09 11:30:13;;;;;;;21.48;17.80;;;21.80;36.50;;;;;;5044772;28;20060;-52
2023/04/09 11:32:39;;;;;;;18.95;16.55;;;21.80;36.40;;;;;;5042406;28;20048;-54
2023/04/09 11:35:14;;;;;;;19.10;17.02;;;21.80;36.30;;;;;;5045839;28;20444;-45
2023/04/09 11:37:41;;;;;;;20.23;16.83;;;21.80;36.20;;;;;;5035349;28;20051;-48
2023/04/09 11:40:33;;;;;;;20.17;16.65;;;21.90;36.20;;;;;;5038956;28;20021;-50
2023/04/09 11:43:02;;;;;;;22.08;17.50;;;21.90;36.10;;;;;;5036655;28;20052;-47
2023/04/09 11:45:29;;;;;;;18.95;16.08;;;21.90;35.90;;;;;;5041821;28;20060;-46
2023/04/09 11:47:56;;;;;;;18.98;16.00;;;21.90;35.80;;;;;;5039520;28;20079;-50
2023/04/09 11:50:22;;;;;;;18.08;16.15;;;21.90;35.60;;;;;;5041746;28;20361;-48
2023/04/09 11:52:49;;;;;;;18.48;15.13;;;21.90;35.50;;;;;;5037592;28;20043;-51
2023/04/09 11:55:28;;;;;;;18.45;15.70;;;21.90;35.40;;;;;;5042533;28;20456;-49
2023/04/09 11:57:59;;;;;;;16.65;14.23;;;21.90;35.20;;;;;;5039262;28;20154;-49
2023/04/09 12:00:26;;;;;;;18.55;14.65;;;21.90;35.10;;;;;;5036096;28;20065;-50
2023/04/09 12:03:05;;;;;;;18.98;15.00;;;21.90;35.00;;;;;;5043657;28;20025;-51
2023/04/09 12:05:33;;;;;;;16.38;14.00;;;21.90;34.90;;;;;;5040137;28;20029;-52
2023/04/09 12:08:01;;;;;;;16.83;14.30;;;21.90;34.80;;;;;;5037168;28;20417;-49
2023/04/09 12:10:35;;;;;;;15.90;14.00;;;22.00;35.40;;;;;;5040617;28;20037;-52
2023/04/09 12:13:02;;;;;;;;;;;22.00;34.80;;;;;;5039830;28;20124;-49
2023/04/09 12:15:31;;;;;;;38.08;26.50;;;22.00;35.00;;;;;;5038386;28;19915;-54
2023/04/09 12:17:58;;;;;;;41.97;28.33;;;22.00;36.50;;;;;;5041218;28;20116;-54
2023/04/09 12:20:34;;;;;;;41.65;27.50;;;22.00;38.40;;;;;;5037531;28;20037;-53
2023/04/09 12:23:02;;;;;;;40.25;26.67;;;22.10;40.30;;;;;;5038137;28;20047;-52
2023/04/09 12:25:35;;;;;;;36.30;23.35;;;22.00;41.60;;;;;;5036536;28;20044;-50
2023/04/09 12:28:03;;;;;;;34.38;21.92;;;22.10;42.20;;;;;;5035923;28;20060;-46
2023/04/09 12:30:31;;;;;;;33.85;21.90;;;22.10;43.00;;;;;;5037734;28;20033;-50
2023/04/09 12:32:57;;;;;;;47.72;25.75;;;22.10;44.00;;;;;;5037212;28;20572;-45
2023/04/09 12:35:23;;;;;;;42.85;22.85;;;22.20;44.80;;;;;;5039040;28;20029;-46
2023/04/09 12:37:50;;;;;;;40.80;22.75;;;22.20;45.50;;;;;;5040746;28;20361;-51
2023/04/09 12:40:16;;;;;;;42.53;23.27;;;22.20;45.60;;;;;;5037615;28;21654;-47
2023/04/09 12:42:44;;;;;;;34.78;21.90;;;22.20;46.50;;;;;;5036906;28;20111;-50
2023/04/09 12:45:16;;;;;;;35.28;20.35;;;22.30;46.90;;;;;;5041228;28;20065;-48
2023/04/09 12:47:42;;;;;;;29.92;20.17;;;22.30;46.90;;;;;;5041024;28;20041;-47